Time;durP1;ratioP1;P1;durP2;ratioP2;P2;SDS_P1;SDS_P2;PMS_P1;PMS_P2;Temp;Humidity;BMP_temperature;BMP_pressure;BME280_temperature;BME280_humidity;BME280_pressure;Samples;Min_cycle;Max_cycle;Signal;HPM_P1;HPM_P2
2022/02/12 00:01:11;;;;;;;43.35;10.85;;;;;;;1.22;90.64;99790.66;4221139;28;20196;-83
2022/02/12 00:03:14;;;;;;;31.65;11.52;;;;;;;1.20;90.94;99792.38;4235855;28;20206;-84
2022/02/12 00:05:18;;;;;;;39.45;12.65;;;;;;;1.17;89.83;99788.09;4236858;28;20203;-83
2022/02/12 00:07:21;;;;;;;36.50;12.60;;;;;;;1.13;90.03;99786.44;4221973;28;20216;-84
2022/02/12 00:09:26;;;;;;;47.75;12.50;;;;;;;1.11;89.55;99783.03;4239677;28;20204;-83
2022/02/12 00:11:30;;;;;;;49.72;12.23;;;;;;;1.08;89.44;99779.59;4214062;28;20266;-84
2022/02/12 00:13:35;;;;;;;54.95;13.75;;;;;;;1.05;89.77;99775.34;4240340;28;20584;-83
2022/02/12 00:15:39;;;;;;;47.08;11.10;;;;;;;1.07;90.22;99775.34;4223151;28;20647;-83
2022/02/12 00:17:42;;;;;;;45.30;13.65;;;;;;;1.07;90.33;99775.34;4241262;27;20203;-83
2022/02/12 00:19:45;;;;;;;48.03;12.40;;;;;;;1.06;90.42;99777.03;4224013;28;20192;-83
2022/02/12 00:21:48;;;;;;;46.88;12.20;;;;;;;1.04;91.20;99768.50;4222287;28;20218;-83
2022/02/12 00:23:51;;;;;;;39.67;11.52;;;;;;;1.02;90.24;99765.09;4237837;27;20214;-84
2022/02/12 00:25:54;;;;;;;57.70;12.40;;;;;;;1.02;90.49;99764.22;4241985;27;20208;-83
2022/02/12 00:27:58;;;;;;;47.00;14.15;;;;;;;1.02;90.90;99767.66;4218857;28;20197;-84
2022/02/12 00:30:02;;;;;;;36.70;12.95;;;;;;;1.00;90.77;99763.38;4234494;27;20210;-83
2022/02/12 00:32:06;;;;;;;37.78;11.55;;;;;;;1.02;91.27;99762.50;4244338;27;20282;-84
2022/02/12 00:34:09;;;;;;;27.48;11.23;;;;;;;1.01;90.49;99757.38;4244581;27;20272;-83
2022/02/12 00:36:13;;;;;;;38.40;12.00;;;;;;;0.97;90.61;99764.22;4244360;27;20347;-83
2022/02/12 00:38:16;;;;;;;35.85;11.68;;;;;;;0.93;91.18;99753.13;4228367;28;20203;-83
2022/02/12 00:40:22;;;;;;;50.47;11.13;;;;;;;0.88;90.89;99752.31;4242341;27;20221;-83
2022/02/12 00:42:25;;;;;;;28.52;10.18;;;;;;;0.82;90.01;99748.03;4243018;27;20660;-83
2022/02/12 00:44:28;;;;;;;59.28;11.25;;;;;;;0.78;89.78;99758.31;4240241;27;20210;-83
2022/02/12 00:46:33;;;;;;;47.17;12.10;;;;;;;0.72;89.48;99751.50;4225432;28;20196;-83
2022/02/12 00:48:36;;;;;;;45.92;11.63;;;;;;;0.70;89.32;99742.94;4245257;27;20204;-83
2022/02/12 00:50:39;;;;;;;35.83;12.00;;;;;;;0.69;89.89;99738.69;4244617;27;20196;-83
2022/02/12 00:52:42;;;;;;;39.28;11.05;;;;;;;0.71;90.17;99736.13;4229072;28;20228;-84
2022/02/12 00:54:45;;;;;;;42.78;12.30;;;;;;;0.69;89.81;99735.25;4244356;27;20203;-83
2022/02/12 00:56:48;;;;;;;71.93;14.25;;;;;;;0.69;90.04;99745.50;4244795;27;20195;-83
2022/02/12 00:58:52;;;;;;;36.88;11.90;;;;;;;0.67;90.61;99740.38;4241916;27;20215;-83
2022/02/12 01:00:55;;;;;;;48.70;12.23;;;;;;;0.71;90.36;99733.56;4239075;27;20701;-83
2022/02/12 01:03:00;;;;;;;62.13;11.00;;;;;;;0.71;91.09;99728.41;4225434;28;20215;-84
2022/02/12 01:05:04;;;;;;;56.20;11.60;;;;;;;0.71;90.41;99734.38;4242783;27;20767;-83
2022/02/12 01:07:07;;;;;;;39.75;11.13;;;;;;;0.69;91.05;99727.53;4243233;27;20631;-83
2022/02/12 01:09:11;;;;;;;38.28;10.73;;;;;;;0.67;90.22;99736.97;4224141;28;20211;-83
2022/02/12 01:11:14;;;;;;;44.33;11.60;;;;;;;0.61;90.45;99740.41;4243291;27;20211;-83
2022/02/12 01:13:17;;;;;;;50.42;11.50;;;;;;;0.59;91.14;99733.59;4242770;27;20215;-83
2022/02/12 01:15:20;;;;;;;47.08;10.02;;;;;;;0.58;90.83;99737.84;4221929;28;20703;-83
2022/02/12 01:17:25;;;;;;;37.00;11.77;;;;;;;0.58;90.66;99737.84;4243061;27;20343;-83
2022/02/12 01:19:30;;;;;;;31.77;11.73;;;;;;;0.54;90.38;99736.16;4221082;28;20208;-83
2022/02/12 01:21:33;;;;;;;44.72;12.93;;;;;;;0.51;90.95;99736.16;4226314;28;20207;-83
2022/02/12 01:23:36;;;;;;;38.55;11.20;;;;;;;0.46;91.08;99748.13;4239567;27;20202;-83
2022/02/12 01:25:40;;;;;;;31.95;11.48;;;;;;;0.45;90.57;99739.59;4243677;27;20192;-83
2022/02/12 01:27:44;;;;;;;34.38;11.40;;;;;;;0.45;90.64;99737.03;4226753;27;20204;-83
2022/02/12 01:29:47;;;;;;;38.03;10.05;;;;;;;0.46;90.76;99742.16;4240410;27;20205;-83
2022/02/12 01:31:50;;;;;;;43.65;11.85;;;;;;;0.48;90.56;99736.19;4226147;27;20264;-83
2022/02/12 01:33:55;;;;;;;34.72;11.55;;;;;;;0.48;90.93;99736.19;4225222;28;20199;-83
2022/02/12 01:36:00;;;;;;;26.42;10.02;;;;;;;0.48;90.00;99733.63;4241313;27;20199;-83
2022/02/12 01:38:03;;;;;;;50.00;11.07;;;;;;;0.47;89.85;99726.75;4239656;27;20682;-83
2022/02/12 01:40:08;;;;;;;36.13;11.50;;;;;;;0.46;89.76;99719.91;4240091;27;20227;-83
2022/02/12 01:42:11;;;;;;;28.55;10.68;;;;;;;0.46;90.12;99717.34;4243261;27;20202;-83
2022/02/12 01:44:14;;;;;;;27.95;10.57;;;;;;;0.47;90.08;99723.34;4243051;27;20563;-83
2022/02/12 01:46:17;;;;;;;39.25;10.40;;;;;;;0.46;90.09;99719.06;4242736;27;20299;-83
2022/02/12 01:48:20;;;;;;;37.92;10.68;;;;;;;0.42;89.89;99719.09;4240127;27;20681;-84
2022/02/12 01:50:23;;;;;;;29.95;9.65;;;;;;;0.40;90.39;99720.81;4225591;28;20196;-84
2022/02/12 01:52:31;;;;;;;44.70;11.90;;;;;;;0.36;89.86;99714.84;4244535;27;20207;-83
2022/02/12 01:54:34;;;;;;;36.47;9.60;;;;;;;0.37;90.08;99715.69;4238486;27;20732;-83
2022/02/12 01:56:38;;;;;;;33.50;10.95;;;;;;;0.34;90.11;99713.13;4239485;27;20199;-83
2022/02/12 01:58:41;;;;;;;34.28;10.43;;;;;;;0.34;89.66;99713.13;4222318;28;20211;-83
2022/02/12 02:00:44;;;;;;;29.73;10.02;;;;;;;0.32;90.02;99714.84;4227830;28;20616;-83
2022/02/12 02:02:47;;;;;;;23.10;9.77;;;;;;;0.30;89.90;99713.97;4224315;28;20235;-83
2022/02/12 02:04:50;;;;;;;27.60;10.82;;;;;;;0.32;90.31;99713.13;4242658;27;20613;-83
2022/02/12 02:06:53;;;;;;;43.80;10.88;;;;;;;0.32;90.15;99714.84;4224576;28;20207;-84
2022/02/12 02:08:58;;;;;;;33.00;10.65;;;;;;;0.31;89.72;99710.56;4238164;27;20199;-84
2022/02/12 02:11:01;;;;;;;23.33;10.65;;;;;;;0.30;89.59;99703.72;4223962;28;20735;-83
2022/02/12 02:13:04;;;;;;;18.92;10.07;;;;;;;0.27;90.06;99711.41;4242365;27;20223;-83
2022/02/12 02:15:09;;;;;;;28.02;10.80;;;;;;;0.24;89.23;99704.59;4226701;28;20212;-84
2022/02/12 02:17:12;;;;;;;27.27;9.98;;;;;;;0.21;89.29;99708.88;4243282;27;20688;-83
2022/02/12 02:19:15;;;;;;;19.88;10.05;;;;;;;0.18;88.90;99704.63;4224844;27;20215;-84
2022/02/12 02:21:18;;;;;;;27.70;10.32;;;;;;;0.19;88.18;99710.59;4243175;27;20571;-83
2022/02/12 02:23:23;;;;;;;14.27;8.25;;;;;;;0.23;87.62;99714.88;4244317;27;20199;-84
2022/02/12 02:25:27;;;;;;;13.60;8.75;;;;;;;0.24;88.06;99711.44;4237426;27;20303;-83
2022/02/12 02:27:30;;;;;;;16.05;9.38;;;;;;;0.29;88.22;99707.16;4254177;27;20206;-84
2022/02/12 02:29:34;;;;;;;13.93;8.75;;;;;;;0.31;88.27;99697.75;4225007;28;21273;-83
2022/02/12 02:31:37;;;;;;;11.77;8.32;;;;;;;0.34;88.21;99706.28;4242799;27;20230;-83
2022/02/12 02:33:41;;;;;;;15.27;8.10;;;;;;;0.32;87.46;99705.44;4226879;28;20609;-83
2022/02/12 02:35:44;;;;;;;13.02;8.38;;;;;;;0.30;86.45;99703.72;4241097;27;20207;-84
2022/02/12 02:37:47;;;;;;;12.70;7.88;;;;;;;0.22;85.97;99711.44;4242638;27;20694;-83
2022/02/12 02:39:52;;;;;;;10.25;7.90;;;;;;;0.13;85.05;99705.47;4242389;27;20234;-83
2022/02/12 02:41:55;;;;;;;13.38;8.50;;;;;;;0.04;85.01;99705.47;4256139;27;20263;-83
2022/02/12 02:43:58;;;;;;;13.00;8.25;;;;;;;-0.01;85.33;99697.78;4239310;27;20187;-83
2022/02/12 02:46:01;;;;;;;12.43;7.70;;;;;;;0.03;85.42;99693.50;4239778;27;20206;-83
2022/02/12 02:48:07;;;;;;;12.60;8.43;;;;;;;0.02;85.24;99689.25;4242471;27;20203;-83
2022/02/12 02:57:22;;;;;;;15.85;8.57;;;;;;;-0.15;86.65;99685.00;4236161;27;20232;-84
2022/02/12 02:59:25;;;;;;;13.35;8.40;;;;;;;-0.17;85.88;99690.13;4240631;27;20218;-83
2022/02/12 03:01:29;;;;;;;10.00;7.35;;;;;;;-0.17;86.04;99686.72;4238038;27;20193;-83
2022/02/12 03:03:32;;;;;;;14.20;8.10;;;;;;;-0.15;86.09;99673.06;4240159;27;20197;-83
2022/02/12 03:05:36;;;;;;;20.13;9.45;;;;;;;-0.10;86.53;99680.75;4254800;27;20198;-83
2022/02/12 03:07:41;;;;;;;16.13;8.80;;;;;;;-0.06;87.83;99673.03;4224028;28;20197;-83
2022/02/12 03:09:44;;;;;;;15.27;8.25;;;;;;;-0.01;87.36;99681.56;4237549;27;20599;-83
2022/02/12 03:11:49;;;;;;;18.60;9.25;;;;;;;0.00;87.60;99675.59;4221925;28;20207;-84
2022/02/12 03:13:55;;;;;;;14.77;8.40;;;;;;;0.00;87.75;99685.84;4227583;27;20230;-83
2022/02/12 03:15:58;;;;;;;15.13;8.80;;;;;;;0.00;87.82;99675.59;4238495;27;20206;-84
2022/02/12 03:18:01;;;;;;;17.20;9.45;;;;;;;0.06;87.61;99673.00;4241945;27;20195;-83
2022/02/12 03:20:04;;;;;;;17.77;9.10;;;;;;;0.03;87.14;99668.75;4238946;27;20202;-84
2022/02/12 03:22:07;;;;;;;14.85;9.75;;;;;;;0.03;87.55;99673.00;4224624;28;20202;-83
2022/02/12 03:24:10;;;;;;;14.80;8.75;;;;;;;0.05;87.41;99668.75;4224392;28;20199;-84
2022/02/12 03:26:14;;;;;;;13.10;7.88;;;;;;;0.01;86.55;99674.72;4237529;27;20234;-83
2022/02/12 03:28:19;;;;;;;15.07;9.20;;;;;;;0.03;86.86;99675.56;4231987;27;20201;-83
2022/02/12 03:30:22;;;;;;;12.43;7.65;;;;;;;0.05;86.31;99672.16;4236854;27;20351;-83
2022/02/12 03:32:25;;;;;;;12.48;8.15;;;;;;;0.06;86.92;99676.44;4237760;27;20207;-84
2022/02/12 03:34:28;;;;;;;12.70;7.90;;;;;;;0.08;86.80;99671.31;4239255;27;20212;-83
2022/02/12 03:36:31;;;;;;;14.07;8.85;;;;;;;0.07;86.92;99667.88;4240455;27;20194;-84
2022/02/12 03:38:36;;;;;;;11.45;7.90;;;;;;;0.09;87.22;99662.72;4239606;27;20204;-83
2022/02/12 03:40:41;;;;;;;13.50;8.05;;;;;;;0.11;87.18;99661.88;4219426;28;20205;-83
2022/02/12 03:42:44;;;;;;;12.75;7.80;;;;;;;0.13;87.31;99661.88;4220195;28;20201;-83
2022/02/12 03:44:48;;;;;;;11.52;7.05;;;;;;;0.14;87.25;99663.59;4236319;27;20611;-84
2022/02/12 03:46:52;;;;;;;11.88;7.53;;;;;;;0.12;85.90;99655.03;4241952;27;20198;-84
2022/02/12 03:48:55;;;;;;;15.95;8.73;;;;;;;0.04;85.02;99649.09;4225267;28;20253;-83
2022/02/12 03:50:58;;;;;;;14.63;8.60;;;;;;;-0.02;85.30;99653.38;4237106;27;20204;-83
2022/02/12 03:53:03;;;;;;;14.80;8.05;;;;;;;-0.07;84.57;99650.81;4238994;27;20262;-83
2022/02/12 03:55:08;;;;;;;12.18;6.63;;;;;;;-0.01;85.15;99648.25;4224957;28;20270;-84
2022/02/12 03:57:11;;;;;;;11.40;8.18;;;;;;;0.03;85.64;99648.25;4242320;27;20202;-83
2022/02/12 03:59:18;;;;;;;10.25;6.82;;;;;;;0.05;86.08;99645.69;4239888;27;20218;-84
2022/02/12 04:01:23;;;;;;;12.05;7.28;;;;;;;0.04;86.10;99639.66;4222312;28;20314;-83
2022/02/12 04:03:26;;;;;;;11.57;7.35;;;;;;;0.06;86.67;99643.09;4239131;27;20208;-83
2022/02/12 04:05:31;;;;;;;13.15;7.78;;;;;;;0.06;86.46;99649.91;4240150;28;20203;-83
2022/02/12 04:07:37;;;;;;;14.63;7.85;;;;;;;0.05;86.12;99638.81;4239697;28;20207;-84
2022/02/12 04:09:40;;;;;;;10.80;6.95;;;;;;;0.03;85.94;99629.41;4223147;28;20204;-83
2022/02/12 04:11:43;;;;;;;14.48;8.15;;;;;;;0.01;85.86;99637.13;4237031;28;20197;-83
2022/02/12 04:13:47;;;;;;;14.00;8.43;;;;;;;0.02;85.31;99622.59;4234197;28;20223;-83
2022/02/12 04:15:50;;;;;;;11.88;7.88;;;;;;;0.01;85.36;99624.28;4220984;28;20755;-83
2022/02/12 04:17:55;;;;;;;13.48;7.07;;;;;;;-0.01;85.29;99614.94;4236983;28;20208;-83
2022/02/12 04:20:02;;;;;;;13.20;7.50;;;;;;;-0.01;85.55;99622.63;4223796;28;20598;-83
2022/02/12 04:22:05;;;;;;;11.05;7.40;;;;;;;0.03;85.96;99616.59;4221578;28;20207;-83
2022/02/12 04:24:08;;;;;;;14.70;7.70;;;;;;;0.03;85.56;99621.72;4222719;28;20200;-82
2022/02/12 04:26:12;;;;;;;10.07;7.20;;;;;;;0.04;85.63;99620.88;4224453;28;20691;-83
2022/02/12 04:28:15;;;;;;;12.77;8.05;;;;;;;0.04;85.89;99613.19;4241029;28;20210;-83
2022/02/12 04:30:19;;;;;;;11.90;8.25;;;;;;;0.02;85.88;99605.50;4237830;28;20211;-82
2022/02/12 04:32:22;;;;;;;13.13;7.35;;;;;;;0.05;85.54;99607.22;4238379;27;20200;-84
2022/02/12 04:34:26;;;;;;;14.13;8.05;;;;;;;0.05;86.04;99599.53;4241394;27;20220;-83
2022/02/12 04:36:30;;;;;;;14.40;7.40;;;;;;;0.07;85.46;99608.06;4239929;28;20210;-83
2022/02/12 04:38:33;;;;;;;14.07;7.93;;;;;;;0.07;85.49;99602.94;4219798;28;20192;-83
2022/02/12 04:40:37;;;;;;;13.23;7.80;;;;;;;0.06;85.45;99601.22;4240874;28;20288;-83
2022/02/12 04:42:41;;;;;;;11.93;6.90;;;;;;;0.07;84.74;99595.25;4240357;27;20297;-83
2022/02/12 04:44:45;;;;;;;11.23;7.70;;;;;;;0.05;84.85;99591.84;4225123;28;20200;-83
2022/02/12 04:46:48;;;;;;;10.30;6.70;;;;;;;0.02;85.32;99587.56;4240919;28;20238;-83
2022/02/12 04:48:51;;;;;;;10.30;7.50;;;;;;;0.02;84.88;99591.84;4241412;28;20203;-83
2022/02/12 04:50:56;;;;;;;10.07;6.53;;;;;;;0.01;85.17;99592.69;4239514;27;20202;-83
2022/02/12 04:52:59;;;;;;;14.15;6.88;;;;;;;-0.02;85.28;99586.75;4224462;28;20203;-83
2022/02/12 04:55:02;;;;;;;10.23;6.90;;;;;;;-0.03;85.12;99580.75;4235971;28;20220;-83
2022/02/12 04:57:06;;;;;;;12.60;7.40;;;;;;;-0.02;85.14;99581.59;4222854;28;20205;-83
2022/02/12 04:59:10;;;;;;;13.38;7.70;;;;;;;-0.01;85.13;99575.63;4236550;28;20211;-83
2022/02/12 05:01:20;;;;;;;15.70;7.80;;;;;;;-0.01;85.39;99576.47;4223632;28;20207;-83
2022/02/12 05:03:24;;;;;;;12.63;7.20;;;;;;;-0.01;85.27;99579.03;4221742;27;20248;-83
2022/02/12 05:05:27;;;;;;;12.65;6.97;;;;;;;-0.05;84.95;99577.34;4241419;27;20243;-83
2022/02/12 05:07:31;;;;;;;14.20;7.55;;;;;;;-0.02;84.98;99577.31;4240754;27;20297;-83
2022/02/12 05:09:35;;;;;;;12.60;7.60;;;;;;;-0.04;84.78;99579.06;4225931;28;20706;-83
2022/02/12 05:11:38;;;;;;;11.73;6.93;;;;;;;-0.10;84.28;99568.81;4221571;28;20335;-83
2022/02/12 05:13:41;;;;;;;13.80;7.55;;;;;;;-0.08;83.81;99561.13;4242310;27;20215;-83
2022/02/12 05:15:44;;;;;;;9.95;7.03;;;;;;;-0.04;83.73;99557.69;4257593;27;20612;-83
2022/02/12 05:17:48;;;;;;;9.23;6.20;;;;;;;-0.06;83.59;99557.72;4242877;27;20656;-83
2022/02/12 05:19:51;;;;;;;12.63;6.75;;;;;;;-0.09;83.79;99560.28;4223927;28;20601;-83
2022/02/12 05:21:56;;;;;;;10.13;6.28;;;;;;;-0.10;83.50;99555.16;4239795;27;20673;-83
2022/02/12 05:24:02;;;;;;;9.35;6.35;;;;;;;-0.17;83.11;99551.75;4243392;27;20671;-83
2022/02/12 05:26:06;;;;;;;12.65;7.57;;;;;;;-0.16;83.30;99552.63;4240676;27;20198;-83
2022/02/12 05:28:09;;;;;;;15.23;9.35;;;;;;;-0.16;83.37;99557.75;4227984;28;20236;-83
2022/02/12 05:30:13;;;;;;;14.70;10.05;;;;;;;-0.16;83.61;99553.47;4242580;27;20185;-83
2022/02/12 05:32:17;;;;;;;13.85;9.23;;;;;;;-0.19;83.61;99548.34;4225136;28;20203;-83
2022/02/12 05:34:20;;;;;;;15.57;8.52;;;;;;;-0.19;83.92;99545.78;4230235;27;20264;-83
2022/02/12 05:36:23;;;;;;;15.82;8.57;;;;;;;-0.21;83.84;99542.38;4224502;28;20207;-83
2022/02/12 05:38:26;;;;;;;12.80;8.13;;;;;;;-0.21;84.32;99542.38;4242045;27;20216;-83
2022/02/12 05:40:31;;;;;;;13.90;8.25;;;;;;;-0.15;84.76;99542.34;4239506;27;20206;-83
2022/02/12 05:42:34;;;;;;;13.77;8.02;;;;;;;-0.12;85.19;99529.53;4240048;27;20792;-83
2022/02/12 05:44:37;;;;;;;11.52;7.03;;;;;;;-0.11;85.24;99536.34;4241951;27;20204;-83
2022/02/12 05:46:40;;;;;;;13.18;6.82;;;;;;;-0.14;85.21;99535.50;4242555;27;20203;-83
2022/02/12 05:48:45;;;;;;;13.23;7.57;;;;;;;-0.13;85.25;99529.53;4242805;27;20218;-83
2022/02/12 05:50:48;;;;;;;11.77;7.40;;;;;;;-0.10;84.96;99525.25;4217623;28;20204;-83
2022/02/12 05:52:51;;;;;;;9.45;6.90;;;;;;;-0.08;85.39;99525.25;4243353;27;20558;-83
2022/02/12 05:54:54;;;;;;;12.13;6.30;;;;;;;-0.03;85.89;99528.63;4243502;27;20213;-83
2022/02/12 05:56:59;;;;;;;12.75;7.55;;;;;;;-0.02;85.96;99531.19;4244205;27;20863;-83
2022/02/12 05:59:02;;;;;;;12.95;7.90;;;;;;;0.02;86.05;99530.31;4225015;28;20219;-84
2022/02/12 06:01:05;;;;;;;10.10;6.45;;;;;;;0.04;85.75;99518.34;4226486;28;20203;-83
2022/02/12 06:03:08;;;;;;;13.80;7.97;;;;;;;0.07;85.57;99528.59;4243210;27;20203;-83
2022/02/12 06:05:11;;;;;;;15.52;7.32;;;;;;;0.05;86.07;99530.31;4240431;27;20195;-83
2022/02/12 06:07:14;;;;;;;11.48;7.53;;;;;;;0.04;86.27;99520.91;4240179;27;20576;-83
2022/02/12 06:09:18;;;;;;;11.48;7.68;;;;;;;0.02;85.52;99522.63;4221865;28;20763;-83
2022/02/12 06:11:21;;;;;;;13.40;7.43;;;;;;;0.00;85.54;99529.50;4224054;28;20204;-83
2022/02/12 06:13:26;;;;;;;10.68;6.97;;;;;;;-0.05;84.65;99522.66;4242978;27;20225;-83
2022/02/12 06:15:29;;;;;;;13.95;6.82;;;;;;;-0.06;84.39;99523.50;4238137;27;20220;-83
2022/02/12 06:17:32;;;;;;;11.10;7.18;;;;;;;-0.12;84.25;99514.16;4242322;27;20252;-83
2022/02/12 06:19:36;;;;;;;13.55;6.60;;;;;;;-0.14;84.20;99518.41;4222236;28;20204;-83
2022/02/12 06:21:39;;;;;;;9.68;6.60;;;;;;;-0.12;84.71;99515.84;4241960;27;20215;-83
2022/02/12 06:23:42;;;;;;;12.75;7.43;;;;;;;-0.08;85.04;99520.13;4221649;28;20211;-84
2022/02/12 06:25:45;;;;;;;12.10;7.35;;;;;;;-0.06;85.65;99516.69;4223154;28;20195;-83
2022/02/12 06:27:49;;;;;;;12.00;7.60;;;;;;;-0.03;85.57;99510.69;4239148;27;20302;-83
2022/02/12 06:29:54;;;;;;;14.25;7.38;;;;;;;-0.05;85.10;99512.41;4220340;27;20203;-83
2022/02/12 06:31:57;;;;;;;15.57;6.75;;;;;;;-0.04;85.17;99511.56;4238816;27;20206;-83
2022/02/12 06:34:00;;;;;;;12.57;7.38;;;;;;;-0.05;85.44;99514.97;4220903;28;20722;-83
2022/02/12 06:36:04;;;;;;;13.13;7.40;;;;;;;-0.02;85.34;99508.13;4240592;27;20642;-84
2022/02/12 06:38:08;;;;;;;12.60;7.60;;;;;;;0.02;85.58;99502.97;4241608;27;20195;-83
2022/02/12 06:40:13;;;;;;;13.30;7.20;;;;;;;0.08;85.52;99502.09;4223210;28;20655;-83
2022/02/12 06:42:16;;;;;;;11.80;6.90;;;;;;;0.12;86.13;99504.66;4222378;28;20211;-83
2022/02/12 06:44:19;;;;;;;17.27;7.82;;;;;;;0.12;86.42;99514.03;4216427;28;20255;-83
2022/02/12 06:46:24;;;;;;;13.88;7.63;;;;;;;0.12;85.95;99496.94;4257113;27;20649;-83
2022/02/12 06:48:27;;;;;;;13.30;8.38;;;;;;;0.10;86.09;99503.78;4216003;28;21533;-83
2022/02/12 06:50:30;;;;;;;12.15;6.93;;;;;;;0.13;86.51;99513.19;4236734;27;20237;-83
2022/02/12 06:52:33;;;;;;;11.65;7.55;;;;;;;0.15;85.82;99519.13;4237800;27;20340;-83
2022/02/12 06:54:36;;;;;;;18.58;7.25;;;;;;;0.22;86.20;99513.13;4222324;28;20349;-83
2022/02/12 06:56:39;;;;;;;11.32;7.32;;;;;;;0.35;86.63;99507.94;4243651;27;21285;-83
2022/02/12 06:58:42;;;;;;;16.95;7.90;;;;;;;0.50;86.72;99513.81;4222711;28;20256;-83
2022/02/12 07:00:46;;;;;;;12.15;7.30;;;;;;;0.64;86.00;99509.44;4239734;27;20200;-83
2022/02/12 07:02:51;;;;;;;11.80;6.72;;;;;;;0.78;86.60;99514.47;4241923;27;20196;-83
2022/02/12 07:04:55;;;;;;;15.30;8.30;;;;;;;0.93;86.38;99516.94;4223750;28;20279;-83
2022/02/12 07:06:58;;;;;;;13.43;7.97;;;;;;;1.07;85.49;99514.25;4243311;27;20578;-83
2022/02/12 07:09:01;;;;;;;15.73;8.88;;;;;;;1.22;85.21;99508.09;4242835;27;20192;-84
2022/02/12 07:11:04;;;;;;;17.02;8.75;;;;;;;1.28;84.73;99500.34;4221178;28;20249;-83
2022/02/12 07:13:07;;;;;;;15.15;8.50;;;;;;;1.44;84.52;99505.31;4226289;28;20219;-83
2022/02/12 07:15:11;;;;;;;16.17;7.63;;;;;;;1.60;84.19;99501.75;4254730;27;20676;-83
2022/02/12 07:17:14;;;;;;;16.83;10.10;;;;;;;1.76;83.83;99505.84;4239644;27;20238;-85
2022/02/12 07:19:19;;;;;;;18.83;9.68;;;;;;;1.87;83.65;99508.28;4239521;27;20207;-82
2022/02/12 07:21:22;;;;;;;15.23;9.32;;;;;;;2.01;83.60;99508.09;4237040;27;20207;-82
2022/02/12 07:23:26;;;;;;;15.18;9.75;;;;;;;2.16;83.48;99508.75;4239044;27;20212;-77
2022/02/12 07:25:29;;;;;;;15.68;9.27;;;;;;;2.33;83.60;99505.13;4239064;27;20265;-81
2022/02/12 07:27:32;;;;;;;38.50;19.25;;;;;;;2.48;83.28;99504.91;4221657;28;20200;-82
2022/02/12 07:29:35;;;;;;;19.88;11.82;;;;;;;2.60;82.51;99504.75;4253910;27;20269;-81
2022/02/12 07:31:39;;;;;;;15.88;10.25;;;;;;;2.70;82.04;99495.97;4240262;27;20203;-82
2022/02/12 07:33:42;;;;;;;15.15;8.27;;;;;;;2.85;82.33;99500.91;4256647;27;20226;-81
2022/02/12 07:35:49;;;;;;;20.33;11.10;;;;;;;2.96;81.62;99510.19;4240641;27;20226;-81
2022/02/12 07:37:52;;;;;;;14.02;9.57;;;;;;;3.10;82.20;99508.22;4245010;27;20192;-81
2022/02/12 07:39:55;;;;;;;26.90;13.10;;;;;;;3.24;81.22;99510.56;4239691;27;20196;-81
2022/02/12 07:41:59;;;;;;;19.45;11.43;;;;;;;3.33;81.79;99511.25;4239918;27;20415;-82
2022/02/12 07:44:03;;;;;;;14.20;9.00;;;;;;;3.43;80.22;99518.81;4242944;27;20222;-82
2022/02/12 07:46:06;;;;;;;18.38;9.38;;;;;;;3.57;80.63;99522.00;4240202;27;20681;-81
2022/02/12 07:48:09;;;;;;;16.20;9.45;;;;;;;3.69;80.64;99526.09;4240147;27;20214;-80
2022/02/12 07:50:14;;;;;;;42.63;21.15;;;;;;;3.79;80.40;99524.16;4224280;28;20668;-80
2022/02/12 07:52:19;;;;;;;27.13;14.00;;;;;;;3.89;80.45;99525.69;4241069;27;20200;-81
2022/02/12 07:54:22;;;;;;;18.52;10.32;;;;;;;4.00;80.21;99528.03;4239278;27;20239;-80
2022/02/12 07:56:26;;;;;;;14.52;8.52;;;;;;;4.12;79.87;99533.84;4239249;27;20704;-80
2022/02/12 07:58:29;;;;;;;17.80;9.90;;;;;;;4.16;78.39;99527.72;4222167;28;20219;-80
2022/02/12 08:00:32;;;;;;;17.73;9.77;;;;;;;4.25;80.08;99530.97;4239256;27;20194;-80
2022/02/12 08:02:35;;;;;;;18.65;11.00;;;;;;;4.35;79.12;99539.38;4239099;27;20215;-80
2022/02/12 08:04:38;;;;;;;16.65;9.00;;;;;;;4.44;80.17;99529.69;4221643;28;20220;-80
2022/02/12 08:09:03;;;;;;;15.57;10.13;;;;;;;4.76;79.27;99527.25;4223374;28;20217;-80
2022/02/12 08:13:36;;;;;;;29.02;19.40;;;;;;;4.94;79.55;99532.00;4198379;28;20258;-80
2022/02/12 08:15:39;;;;;;;23.48;17.73;;;;;;;5.05;79.84;99540.34;4225555;28;20209;-81
2022/02/12 08:17:42;;;;;;;27.48;18.80;;;;;;;5.12;79.06;99534.16;4241405;28;20204;-81
2022/02/12 08:19:46;;;;;;;43.65;33.15;;;;;;;5.24;80.56;99529.53;4236446;28;20731;-81
2022/02/12 08:21:51;;;;;;;35.75;25.85;;;;;;;5.33;79.54;99535.31;4233722;28;20205;-80
2022/02/12 08:23:54;;;;;;;24.15;18.25;;;;;;;5.41;78.70;99533.44;4237581;28;20227;-81
2022/02/12 08:25:59;;;;;;;13.65;10.60;;;;;;;5.50;78.30;99530.56;4237570;28;20206;-80
2022/02/12 08:28:02;;;;;;;14.05;9.63;;;;;;;5.56;78.09;99527.00;4223103;28;20204;-81
2022/02/12 08:30:07;;;;;;;14.15;8.90;;;;;;;5.49;77.47;99523.72;4237208;28;20205;-81
2022/02/12 08:32:11;;;;;;;16.38;9.70;;;;;;;5.58;78.14;99526.09;4239047;28;20202;-81
2022/02/12 08:34:15;;;;;;;15.60;9.45;;;;;;;5.66;78.27;99513.78;4239321;28;20207;-81
2022/02/12 08:36:18;;;;;;;20.63;10.40;;;;;;;5.77;78.48;99515.25;4220467;28;20713;-81
2022/02/12 08:38:21;;;;;;;18.67;10.98;;;;;;;5.86;77.48;99512.38;4244045;27;20204;-80
2022/02/12 08:40:26;;;;;;;27.33;13.85;;;;;;;5.94;77.60;99514.75;4243575;27;20210;-81
2022/02/12 08:42:31;;;;;;;23.60;14.75;;;;;;;6.00;77.23;99497.34;4228282;28;20206;-80
2022/02/12 08:44:37;;;;;;;16.73;8.68;;;;;;;6.02;77.27;99492.97;4243564;27;20293;-81
2022/02/12 08:46:40;;;;;;;14.50;9.40;;;;;;;6.10;77.58;99493.59;4243723;27;20295;-81
2022/02/12 08:48:44;;;;;;;16.63;9.65;;;;;;;6.22;77.71;99499.28;4244325;27;20204;-82
2022/02/12 08:50:47;;;;;;;14.70;9.05;;;;;;;6.30;77.19;99502.50;4240374;27;20235;-80
2022/02/12 08:52:50;;;;;;;20.40;12.10;;;;;;;6.37;76.61;99508.34;4226502;28;20190;-80
2022/02/12 08:54:53;;;;;;;17.10;10.95;;;;;;;6.40;77.28;99500.47;4243121;27;20568;-81
2022/02/12 08:56:57;;;;;;;17.45;10.45;;;;;;;6.50;78.61;99497.59;4243792;27;20216;-81
2022/02/12 08:59:01;;;;;;;13.18;7.60;;;;;;;6.51;76.40;99498.41;4242792;27;20213;-80
2022/02/12 09:01:04;;;;;;;12.90;8.88;;;;;;;6.52;76.90;99495.78;4226086;28;20199;-80
2022/02/12 09:03:10;;;;;;;16.58;9.38;;;;;;;6.58;77.71;99495.59;4226945;28;20746;-80
2022/02/12 09:05:15;;;;;;;12.20;8.15;;;;;;;6.57;77.29;99499.94;4229683;28;20231;-81
2022/02/12 09:07:18;;;;;;;13.85;8.48;;;;;;;6.58;76.59;99500.78;4246307;27;20223;-81
2022/02/12 09:09:21;;;;;;;15.38;8.73;;;;;;;6.52;76.11;99493.19;4230004;28;20518;-81
2022/02/12 09:11:25;;;;;;;17.67;8.80;;;;;;;6.63;77.22;99491.13;4241839;27;20588;-80
2022/02/12 09:13:29;;;;;;;11.43;8.15;;;;;;;6.73;77.58;99493.38;4229973;28;20261;-81
2022/02/12 09:15:33;;;;;;;16.90;9.32;;;;;;;6.87;76.28;99488.66;4243597;27;20225;-82
2022/02/12 09:17:36;;;;;;;17.10;9.70;;;;;;;6.98;75.60;99485.72;4229597;28;20715;-81
2022/02/12 09:19:39;;;;;;;21.08;10.90;;;;;;;6.90;76.30;99479.91;4242708;27;20208;-81
2022/02/12 09:21:44;;;;;;;21.20;10.38;;;;;;;6.95;78.80;99491.84;4244387;27;20231;-80
2022/02/12 09:23:48;;;;;;;13.57;9.15;;;;;;;7.02;76.10;99487.28;4234681;27;20210;-80
2022/02/12 09:25:52;;;;;;;18.05;9.57;;;;;;;7.16;79.28;99489.41;4237682;27;20206;-79
2022/02/12 09:27:55;;;;;;;15.60;9.63;;;;;;;7.33;79.40;99488.84;4241114;27;20237;-80
2022/02/12 09:29:59;;;;;;;11.07;6.30;;;;;;;7.48;74.34;99490.94;4246296;27;20805;-81
2022/02/12 09:32:08;;;;;;;9.15;7.28;;;;;;;7.58;75.06;99481.03;4245331;27;20199;-80
2022/02/12 09:34:11;;;;;;;12.07;6.22;;;;;;;7.71;74.55;99478.84;4239906;27;20198;-82
2022/02/12 09:36:14;;;;;;;12.27;5.35;;;;;;;7.81;74.57;99485.44;4244259;27;20724;-81
2022/02/12 09:38:17;;;;;;;16.30;8.52;;;;;;;7.88;73.74;99472.19;4242654;27;20743;-82
2022/02/12 09:40:20;;;;;;;16.02;8.00;;;;;;;7.98;73.94;99471.78;4240319;27;20219;-81
2022/02/12 09:42:44;;;;;;;10.13;6.07;;;;;;;8.12;74.99;99472.16;4240652;27;20553;-81
2022/02/12 09:44:47;;;;;;;9.20;5.25;;;;;;;8.20;73.94;99479.69;4243643;27;20195;-81
2022/02/12 09:47:22;;;;;;;11.65;5.82;;;;;;;8.31;72.26;99467.13;4242514;27;20196;-81
2022/02/12 09:49:25;;;;;;;6.55;4.00;;;;;;;8.36;72.01;99466.06;4237913;27;20653;-81
2022/02/12 09:51:30;;;;;;;8.30;4.68;;;;;;;8.44;72.39;99461.41;4241306;27;20332;-81